Time,TemperatureF,DewpointF,PressureIn,WindDirection,WindDirectionDegrees,WindSpeedMPH,WindSpeedGustMPH,Humidity,HourlyPrecipIn,Conditions,Clouds,dailyrainin,SolarRadiationWatts/m^2,SoftwareType,DateUTC
2013-02-18 00:02:00,24.0,23.0,30.58,North,5,2.0,4.0,94,0.00,,,0.00,0.000000,,2013-02-18 05:02:00,
2013-02-18 00:11:00,24.0,23.0,30.58,North,5,2.0,4.0,94,0.00,,,0.00,0.000000,,2013-02-18 05:11:00,
2013-02-18 00:42:00,23.0,22.0,30.60,ENE,65,2.0,4.0,95,0.00,,,0.00,0.000000,,2013-02-18 05:42:00,
2013-02-18 00:52:00,23.0,22.0,30.60,ENE,65,2.0,4.0,95,0.00,,,0.00,0.000000,,2013-02-18 05:52:00,
2013-02-18 01:02:00,23.0,22.0,30.60,ENE,65,2.0,4.0,95,0.00,,,0.00,0.000000,,2013-02-18 06:02:00,
2013-02-18 01:11:00,23.0,22.0,30.60,ENE,65,2.0,4.0,95,0.00,,,0.00,0.000000,,2013-02-18 06:11:00,
2013-02-18 01:42:00,21.0,21.0,30.60,ESE,119,2.0,5.0,98,0.00,,,0.00,0.000000,,2013-02-18 06:42:00,
2013-02-18 01:52:00,21.0,21.0,30.60,ESE,119,2.0,5.0,98,0.00,,,0.00,0.000000,,2013-02-18 06:52:00,
2013-02-18 02:02:00,21.0,21.0,30.60,ESE,119,2.0,5.0,98,0.00,,,0.00,0.000000,,2013-02-18 07:02:00,
2013-02-18 02:11:00,21.0,21.0,30.60,ESE,119,2.0,5.0,98,0.00,,,0.00,0.000000,,2013-02-18 07:11:00,
2013-02-18 02:42:00,21.0,21.0,30.62,NNW,331,1.0,4.0,100,0.00,,,0.00,0.000000,,2013-02-18 07:42:00,
2013-02-18 02:52:00,21.0,21.0,30.62,NNW,331,1.0,4.0,100,0.00,,,0.00,0.000000,,2013-02-18 07:52:00,
2013-02-18 03:02:00,21.0,21.0,30.62,NNW,331,1.0,4.0,100,0.00,,,0.00,0.000000,,2013-02-18 08:02:00,
2013-02-18 03:11:00,21.0,21.0,30.62,NNW,331,1.0,4.0,100,0.00,,,0.00,0.000000,,2013-02-18 08:11:00,
2013-02-18 03:42:00,20.0,20.0,30.63,WNW,299,1.0,2.0,100,0.00,,,0.00,0.000000,,2013-02-18 08:42:00,
2013-02-18 03:52:00,20.0,20.0,30.63,WNW,299,1.0,2.0,100,0.00,,,0.00,0.000000,,2013-02-18 08:52:00,
2013-02-18 04:03:00,20.0,20.0,30.63,WNW,299,1.0,2.0,100,0.00,,,0.00,0.000000,,2013-02-18 09:03:00,
2013-02-18 04:11:00,20.0,20.0,30.63,WNW,299,1.0,2.0,100,0.00,,,0.00,0.000000,,2013-02-18 09:11:00,
2013-02-18 04:42:00,19.0,19.0,30.63,North,3,1.0,2.0,100,0.00,,,0.00,0.000000,,2013-02-18 09:42:00,
2013-02-18 04:52:00,19.0,19.0,30.63,North,3,1.0,2.0,100,0.00,,,0.00,0.000000,,2013-02-18 09:52:00,
2013-02-18 05:01:00,19.0,19.0,30.63,North,3,1.0,2.0,100,0.00,,,0.00,0.000000,,2013-02-18 10:01:00,
2013-02-18 05:11:00,19.0,19.0,30.63,North,3,1.0,2.0,100,0.00,,,0.00,0.000000,,2013-02-18 10:11:00,
2013-02-18 05:43:00,19.0,19.0,30.65,NNE,31,2.0,3.0,100,0.00,,,0.00,0.000000,,2013-02-18 10:43:00,
2013-02-18 05:53:00,19.0,19.0,30.65,NNE,31,2.0,3.0,100,0.00,,,0.00,0.000000,,2013-02-18 10:53:00,
2013-02-18 06:02:00,19.0,19.0,30.65,NNE,31,2.0,3.0,100,0.00,,,0.00,0.000000,,2013-02-18 11:02:00,
2013-02-18 06:12:00,19.0,19.0,30.65,NNE,31,2.0,3.0,100,0.00,,,0.00,0.000000,,2013-02-18 11:12:00,
2013-02-18 06:43:00,18.0,18.0,30.67,ENE,57,1.0,3.0,99,0.00,,,0.00,0.000000,,2013-02-18 11:43:00,
2013-02-18 06:53:00,18.0,18.0,30.67,ENE,57,1.0,3.0,99,0.00,,,0.00,0.000000,,2013-02-18 11:53:00,
2013-02-18 07:02:00,18.0,18.0,30.67,ENE,57,1.0,3.0,99,0.00,,,0.00,0.000000,,2013-02-18 12:02:00,
2013-02-18 07:12:00,18.0,18.0,30.67,ENE,57,1.0,3.0,99,0.00,,,0.00,0.000000,,2013-02-18 12:12:00,
2013-02-18 07:42:00,18.0,18.0,30.69,North,349,1.0,3.0,99,0.00,,,0.00,2.000000,,2013-02-18 12:42:00,
2013-02-18 07:54:00,18.0,18.0,30.69,North,349,1.0,3.0,99,0.00,,,0.00,2.000000,,2013-02-18 12:54:00,
2013-02-18 08:03:00,18.0,18.0,30.69,North,349,1.0,3.0,99,0.00,,,0.00,2.000000,,2013-02-18 13:03:00,
2013-02-18 08:12:00,18.0,18.0,30.69,North,349,1.0,3.0,99,0.00,,,0.00,2.000000,,2013-02-18 13:12:00,
2013-02-18 08:42:00,27.0,25.0,30.71,ENE,63,1.0,2.0,91,0.00,,,0.00,119.000000,,2013-02-18 13:42:00,
2013-02-18 08:53:00,27.0,25.0,30.71,ENE,63,1.0,2.0,91,0.00,,,0.00,119.000000,,2013-02-18 13:53:00,
2013-02-18 09:02:00,27.0,25.0,30.71,ENE,63,1.0,2.0,91,0.00,,,0.00,119.000000,,2013-02-18 14:02:00,
2013-02-18 09:12:00,27.0,25.0,30.71,ENE,63,1.0,2.0,91,0.00,,,0.00,119.000000,,2013-02-18 14:12:00,
2013-02-18 09:42:00,35.0,26.0,30.72,SE,128,3.0,5.0,69,0.00,,,0.00,385.000000,,2013-02-18 14:42:00,
2013-02-18 09:54:00,35.0,26.0,30.72,SE,128,3.0,5.0,69,0.00,,,0.00,385.000000,,2013-02-18 14:54:00,
2013-02-18 10:02:00,35.0,26.0,30.72,SE,128,3.0,5.0,69,0.00,,,0.00,385.000000,,2013-02-18 15:02:00,
2013-02-18 10:12:00,35.0,26.0,30.72,SE,128,3.0,5.0,69,0.00,,,0.00,385.000000,,2013-02-18 15:12:00,
2013-02-18 10:42:00,43.0,21.0,30.72,South,187,3.0,9.0,41,0.00,,,0.00,595.000000,,2013-02-18 15:42:00,
2013-02-18 10:53:00,43.0,21.0,30.72,South,187,3.0,9.0,41,0.00,,,0.00,595.000000,,2013-02-18 15:53:00,
2013-02-18 11:03:00,43.0,21.0,30.72,South,187,3.0,9.0,41,0.00,,,0.00,595.000000,,2013-02-18 16:03:00,
2013-02-18 11:12:00,43.0,21.0,30.72,South,187,3.0,9.0,41,0.00,,,0.00,595.000000,,2013-02-18 16:12:00,
2013-02-18 11:43:00,47.0,16.0,30.73,SSE,153,5.0,11.0,28,0.02,,,0.02,786.000000,,2013-02-18 16:43:00,
2013-02-18 11:53:00,47.0,16.0,30.73,SSE,153,5.0,11.0,28,0.02,,,0.02,786.000000,,2013-02-18 16:53:00,
2013-02-18 12:04:00,47.0,16.0,30.73,SSE,153,5.0,11.0,28,0.02,,,0.02,786.000000,,2013-02-18 17:04:00,
2013-02-18 12:12:00,47.0,16.0,30.73,SSE,153,5.0,11.0,28,0.02,,,0.02,786.000000,,2013-02-18 17:12:00,
2013-02-18 12:43:00,50.0,14.0,30.71,SW,225,4.0,12.0,23,0.01,,,0.03,891.000000,,2013-02-18 17:43:00,
2013-02-18 12:53:00,50.0,14.0,30.71,SW,225,4.0,12.0,23,0.01,,,0.03,891.000000,,2013-02-18 17:53:00,
2013-02-18 13:03:00,50.0,14.0,30.71,SW,225,4.0,12.0,23,0.01,,,0.03,891.000000,,2013-02-18 18:03:00,
2013-02-18 13:12:00,50.0,14.0,30.71,SW,225,4.0,12.0,23,0.01,,,0.03,891.000000,,2013-02-18 18:12:00,
2013-02-18 13:43:00,54.0,15.0,30.67,SW,222,5.0,12.0,21,0.00,,,0.03,906.000000,,2013-02-18 18:43:00,
2013-02-18 13:53:00,54.0,15.0,30.67,SW,222,5.0,12.0,21,0.00,,,0.03,906.000000,,2013-02-18 18:53:00,
2013-02-18 14:03:00,54.0,15.0,30.67,SW,222,5.0,12.0,21,0.00,,,0.03,906.000000,,2013-02-18 19:03:00,
2013-02-18 14:13:00,54.0,15.0,30.67,SW,222,5.0,12.0,21,0.00,,,0.03,906.000000,,2013-02-18 19:13:00,
2013-02-18 14:43:00,55.0,16.0,30.65,WSW,245,5.0,13.0,21,0.00,,,0.03,837.000000,,2013-02-18 19:43:00,
2013-02-18 14:53:00,55.0,16.0,30.65,WSW,245,5.0,13.0,21,0.00,,,0.03,837.000000,,2013-02-18 19:53:00,
2013-02-18 15:03:00,55.0,16.0,30.65,WSW,245,5.0,13.0,21,0.00,,,0.03,837.000000,,2013-02-18 20:03:00,
2013-02-18 15:13:00,55.0,16.0,30.65,WSW,245,5.0,13.0,21,0.00,,,0.03,837.000000,,2013-02-18 20:13:00,
2013-02-18 15:43:00,56.0,19.0,30.64,WSW,243,6.0,12.0,23,0.00,,,0.03,686.000000,,2013-02-18 20:43:00,
2013-02-18 15:53:00,56.0,19.0,30.64,WSW,243,6.0,12.0,23,0.00,,,0.03,686.000000,,2013-02-18 20:53:00,
2013-02-18 16:03:00,56.0,19.0,30.64,WSW,243,6.0,12.0,23,0.00,,,0.03,686.000000,,2013-02-18 21:03:00,
2013-02-18 16:12:00,56.0,19.0,30.64,WSW,243,6.0,12.0,23,0.00,,,0.03,686.000000,,2013-02-18 21:12:00,
2013-02-18 16:43:00,56.0,20.0,30.63,WSW,237,6.0,17.0,24,0.00,,,0.03,544.000000,,2013-02-18 21:43:00,
2013-02-18 16:53:00,56.0,20.0,30.63,WSW,237,6.0,17.0,24,0.00,,,0.03,544.000000,,2013-02-18 21:53:00,
2013-02-18 17:03:00,56.0,20.0,30.63,WSW,237,6.0,17.0,24,0.00,,,0.03,544.000000,,2013-02-18 22:03:00,
2013-02-18 17:13:00,56.0,20.0,30.63,WSW,237,6.0,17.0,24,0.00,,,0.03,544.000000,,2013-02-18 22:13:00,
2013-02-18 17:44:00,52.0,20.0,30.62,WSW,238,4.0,14.0,28,0.00,,,0.03,263.000000,,2013-02-18 22:44:00,
2013-02-18 17:54:00,52.0,20.0,30.62,WSW,238,4.0,14.0,28,0.00,,,0.03,263.000000,,2013-02-18 22:54:00,
2013-02-18 18:03:00,52.0,20.0,30.62,WSW,238,4.0,14.0,28,0.00,,,0.03,263.000000,,2013-02-18 23:03:00,
2013-02-18 18:12:00,52.0,20.0,30.62,WSW,238,4.0,14.0,28,0.00,,,0.03,263.000000,,2013-02-18 23:12:00,
2013-02-18 18:43:00,45.0,22.0,30.63,SW,230,3.0,10.0,39,0.00,,,0.03,59.000000,,2013-02-18 23:43:00,
2013-02-18 18:54:00,45.0,22.0,30.63,SW,230,3.0,10.0,39,0.00,,,0.03,59.000000,,2013-02-18 23:54:00,
2013-02-18 19:03:00,45.0,22.0,30.63,SW,230,3.0,10.0,39,0.00,,,0.03,59.000000,,2013-02-19 00:03:00,
2013-02-18 19:12:00,45.0,22.0,30.63,SW,230,3.0,10.0,39,0.00,,,0.03,59.000000,,2013-02-19 00:12:00,
2013-02-18 19:44:00,38.0,25.0,30.62,SW,216,2.0,6.0,60,0.00,,,0.03,0.000000,,2013-02-19 00:44:00,
2013-02-18 19:55:00,38.0,25.0,30.62,SW,216,2.0,6.0,60,0.00,,,0.03,0.000000,,2013-02-19 00:55:00,
2013-02-18 20:03:00,38.0,25.0,30.62,SW,216,2.0,6.0,60,0.00,,,0.03,0.000000,,2013-02-19 01:03:00,
2013-02-18 20:14:00,38.0,25.0,30.62,SW,216,2.0,6.0,60,0.00,,,0.03,0.000000,,2013-02-19 01:14:00,
2013-02-18 20:45:00,41.0,25.0,30.62,SW,216,6.0,13.0,52,0.00,,,0.03,0.000000,,2013-02-19 01:45:00,
2013-02-18 20:57:00,41.0,25.0,30.62,SW,216,6.0,13.0,52,0.00,,,0.03,0.000000,,2013-02-19 01:57:00,
2013-02-18 21:04:00,41.0,25.0,30.62,SW,216,6.0,13.0,52,0.00,,,0.03,0.000000,,2013-02-19 02:04:00,
2013-02-18 21:14:00,41.0,25.0,30.62,SW,216,6.0,13.0,52,0.00,,,0.03,0.000000,,2013-02-19 02:14:00,
2013-02-18 21:15:00,40.0,25.0,30.62,SSW,211,4.0,12.0,54,0.00,,,0.03,0.000000,,2013-02-19 02:15:00,
2013-02-18 21:44:00,40.0,25.0,30.62,SSW,211,4.0,12.0,54,0.00,,,0.03,0.000000,,2013-02-19 02:44:00,
2013-02-18 21:56:00,40.0,25.0,30.62,SSW,211,4.0,12.0,54,0.00,,,0.03,0.000000,,2013-02-19 02:56:00,
2013-02-18 22:07:00,40.0,25.0,30.62,SSW,211,4.0,12.0,54,0.00,,,0.03,0.000000,,2013-02-19 03:07:00,
2013-02-18 22:45:00,39.0,26.0,30.61,West,269,4.0,11.0,60,0.00,,,0.03,0.000000,,2013-02-19 03:45:00,
2013-02-18 22:55:00,39.0,26.0,30.61,West,269,4.0,11.0,60,0.00,,,0.03,0.000000,,2013-02-19 03:55:00,
2013-02-18 23:03:00,39.0,26.0,30.61,West,269,4.0,11.0,60,0.00,,,0.03,0.000000,,2013-02-19 04:03:00,
2013-02-18 23:14:00,39.0,26.0,30.61,West,269,4.0,11.0,60,0.00,,,0.03,0.000000,,2013-02-19 04:14:00,
2013-02-18 23:45:00,36.0,26.0,30.60,NW,307,2.0,12.0,66,0.00,,,0.03,0.000000,,2013-02-19 04:45:00,
2013-02-18 23:56:00,36.0,26.0,30.60,NW,307,2.0,12.0,66,0.00,,,0.03,0.000000,,2013-02-19 04:56:00,